createdAt,value
2017-09-16T00:00:05.475Z,0
2017-09-16T00:01:05.456Z,0
2017-09-16T00:02:05.432Z,0
2017-09-16T00:03:05.767Z,0
2017-09-16T00:04:05.406Z,0
2017-09-16T00:05:05.407Z,0
2017-09-16T00:06:05.750Z,0
2017-09-16T00:07:05.048Z,0
2017-09-16T00:08:05.706Z,0
2017-09-16T00:09:06.002Z,0
2017-09-16T00:10:05.351Z,0
2017-09-16T00:11:05.021Z,0
2017-09-16T00:12:05.310Z,0
2017-09-16T00:13:05.314Z,0
2017-09-16T00:14:05.640Z,0
2017-09-16T00:15:05.276Z,0
2017-09-16T00:16:05.593Z,0
2017-09-16T00:17:05.266Z,0
2017-09-16T00:18:04.928Z,0
2017-09-16T00:19:04.916Z,0
2017-09-16T00:20:05.892Z,0
2017-09-16T00:21:04.874Z,0
2017-09-16T00:22:05.516Z,0
2017-09-16T00:23:05.505Z,0
2017-09-16T00:24:05.181Z,0
2017-09-16T00:25:04.849Z,0
2017-09-16T00:26:05.177Z,0
2017-09-16T00:27:04.813Z,0
2017-09-16T00:28:05.485Z,0
2017-09-16T00:29:04.814Z,0
2017-09-16T00:30:05.435Z,0
2017-09-16T00:31:05.089Z,0
2017-09-16T00:32:04.740Z,0
2017-09-16T00:33:05.710Z,0
2017-09-16T00:34:05.383Z,0
2017-09-16T00:35:04.701Z,0
2017-09-16T00:36:05.018Z,0
2017-09-16T00:37:05.350Z,0
2017-09-16T00:38:05.336Z,0
2017-09-16T00:39:04.995Z,0
2017-09-16T00:40:04.968Z,0
2017-09-16T00:41:04.630Z,0
2017-09-16T00:42:05.273Z,0
2017-09-16T00:43:05.584Z,0
2017-09-16T00:44:04.920Z,0
2017-09-16T00:45:05.568Z,0
2017-09-16T00:46:04.894Z,0
2017-09-16T00:47:04.884Z,0
2017-09-16T00:48:04.924Z,0
2017-09-16T00:49:04.542Z,0
2017-09-16T00:50:04.863Z,0
2017-09-16T00:51:04.537Z,0
2017-09-16T00:52:05.172Z,0
2017-09-16T00:53:05.460Z,0
2017-09-16T00:54:05.120Z,0
2017-09-16T00:55:04.786Z,0
2017-09-16T00:56:05.132Z,0
2017-09-16T00:57:05.438Z,0
2017-09-16T00:58:04.794Z,0
2017-09-16T00:59:05.063Z,0
2017-09-16T01:00:05.095Z,0
2017-09-16T01:01:05.042Z,0
2017-09-16T01:02:05.063Z,0
2017-09-16T01:03:05.377Z,0
2017-09-16T01:04:05.344Z,0
2017-09-16T01:05:04.669Z,0
2017-09-16T01:06:04.647Z,0
2017-09-16T01:07:04.645Z,0
2017-09-16T01:08:04.621Z,0
2017-09-16T01:09:04.978Z,0
2017-09-16T01:10:05.265Z,0
2017-09-16T01:11:04.583Z,0
2017-09-16T01:12:04.624Z,0
2017-09-16T01:13:04.567Z,0
2017-09-16T01:14:04.241Z,0
2017-09-16T01:15:04.541Z,0
2017-09-16T01:16:04.557Z,0
2017-09-16T01:17:04.532Z,0
2017-09-16T01:18:04.196Z,0
2017-09-16T01:19:05.142Z,0
2017-09-16T01:20:04.146Z,0
2017-09-16T01:21:05.141Z,0
2017-09-16T01:22:04.122Z,0
2017-09-16T01:23:04.830Z,0
2017-09-16T01:24:04.119Z,0
2017-09-16T01:25:04.736Z,0
2017-09-16T01:26:04.435Z,0
2017-09-16T01:27:04.713Z,0
2017-09-16T01:28:05.031Z,0
2017-09-16T01:29:04.032Z,0
2017-09-16T01:30:04.353Z,0
2017-09-16T01:31:04.667Z,0
2017-09-16T01:32:05.001Z,0
2017-09-16T01:33:04.331Z,0
2017-09-16T01:34:04.309Z,0
2017-09-16T01:35:03.958Z,0
2017-09-16T01:36:04.275Z,0
2017-09-16T01:37:04.607Z,0
2017-09-16T01:38:04.270Z,0
2017-09-16T01:39:04.616Z,0
2017-09-16T01:40:04.231Z,0
2017-09-16T01:41:04.574Z,0
2017-09-16T01:42:04.543Z,0
2017-09-16T01:43:04.856Z,0
2017-09-16T01:44:04.513Z,0
2017-09-16T01:45:04.180Z,0
2017-09-16T01:46:04.503Z,0
2017-09-16T01:47:04.482Z,0
2017-09-16T01:48:04.132Z,0
2017-09-16T01:49:04.143Z,0
2017-09-16T01:50:04.454Z,0
2017-09-16T01:51:04.461Z,0
2017-09-16T01:52:04.404Z,0
2017-09-16T01:53:04.395Z,0
2017-09-16T01:54:03.735Z,0
2017-09-16T01:55:04.035Z,0
2017-09-16T01:56:04.031Z,0
2017-09-16T01:57:04.345Z,0
2017-09-16T01:58:03.996Z,0
2017-09-16T01:59:03.993Z,0
2017-09-16T02:00:03.977Z,0
2017-09-16T02:01:03.959Z,0
2017-09-16T02:02:03.620Z,0
2017-09-16T02:03:03.946Z,0
2017-09-16T02:04:03.598Z,0
2017-09-16T02:05:03.969Z,0
2017-09-16T02:06:04.245Z,0
2017-09-16T02:07:03.891Z,0
2017-09-16T02:08:03.888Z,0
2017-09-16T02:09:03.872Z,0
2017-09-16T02:10:04.198Z,0
2017-09-16T02:11:03.869Z,0
2017-09-16T02:12:04.155Z,0
2017-09-16T02:13:04.133Z,0
2017-09-16T02:14:04.126Z,0
2017-09-16T02:15:03.786Z,0
2017-09-16T02:16:04.106Z,0
2017-09-16T02:17:03.477Z,0
2017-09-16T02:18:03.749Z,0
2017-09-16T02:19:03.749Z,0
2017-09-16T02:20:03.407Z,0
2017-09-16T02:21:03.721Z,0
2017-09-16T02:22:03.700Z,0
2017-09-16T02:23:03.716Z,0
2017-09-16T02:24:03.672Z,0
2017-09-16T02:25:03.990Z,0
2017-09-16T02:26:03.993Z,0
2017-09-16T02:27:03.652Z,0
2017-09-16T02:28:03.293Z,0
2017-09-16T02:29:03.627Z,0
2017-09-16T02:30:04.302Z,0
2017-09-16T02:31:03.922Z,0
2017-09-16T02:32:03.910Z,0
2017-09-16T02:33:03.605Z,0
2017-09-16T02:34:03.579Z,0
2017-09-16T02:35:04.206Z,0
2017-09-16T02:36:03.201Z,0
2017-09-16T02:37:03.911Z,0
2017-09-16T02:38:03.864Z,0
2017-09-16T02:39:03.510Z,0
2017-09-16T02:40:03.849Z,0
2017-09-16T02:41:04.171Z,0
2017-09-16T02:42:03.448Z,0
2017-09-16T02:43:03.453Z,0
2017-09-16T02:44:03.455Z,0
2017-09-16T02:45:03.804Z,0
2017-09-16T02:46:03.727Z,0
2017-09-16T02:47:03.084Z,0
2017-09-16T02:48:03.407Z,0
2017-09-16T02:49:03.048Z,0
2017-09-16T02:50:03.042Z,0
2017-09-16T02:51:03.342Z,0
2017-09-16T02:52:03.981Z,0
2017-09-16T02:53:03.647Z,0
2017-09-16T02:54:03.310Z,0
2017-09-16T02:55:03.630Z,0
2017-09-16T02:56:03.281Z,0
2017-09-16T02:57:03.623Z,0
2017-09-16T02:58:03.612Z,0
2017-09-16T02:59:02.917Z,0
2017-09-16T03:00:03.230Z,0
2017-09-16T03:01:03.213Z,0
2017-09-16T03:02:02.879Z,0
2017-09-16T03:03:03.540Z,0
2017-09-16T03:04:02.854Z,0
2017-09-16T03:05:02.853Z,0
2017-09-16T03:06:03.842Z,0
2017-09-16T03:07:03.167Z,0
2017-09-16T03:08:03.473Z,0
2017-09-16T03:09:03.448Z,0
2017-09-16T03:10:03.438Z,0
2017-09-16T03:11:02.775Z,0
2017-09-16T03:12:03.408Z,0
2017-09-16T03:13:03.757Z,0
2017-09-16T03:14:02.733Z,0
2017-09-16T03:15:03.374Z,0
2017-09-16T03:16:03.073Z,0
2017-09-16T03:17:02.730Z,0
2017-09-16T03:18:03.035Z,0
2017-09-16T03:19:04.029Z,0
2017-09-16T03:20:02.986Z,0
2017-09-16T03:21:03.314Z,0
2017-09-16T03:22:02.642Z,0
2017-09-16T03:23:02.961Z,0
2017-09-16T03:24:02.959Z,0
2017-09-16T03:25:02.954Z,0
2017-09-16T03:26:02.590Z,0
2017-09-16T03:27:02.565Z,0
2017-09-16T03:28:03.216Z,0
2017-09-16T03:29:02.874Z,0
2017-09-16T03:30:02.530Z,0
2017-09-16T03:31:03.196Z,0
2017-09-16T03:32:03.175Z,0
2017-09-16T03:33:02.500Z,0
2017-09-16T03:34:03.178Z,0
2017-09-16T03:35:03.777Z,0
2017-09-16T03:36:02.477Z,0
2017-09-16T03:37:02.781Z,0
2017-09-16T03:38:03.080Z,0
2017-09-16T03:39:02.744Z,0
2017-09-16T03:40:03.075Z,0
2017-09-16T03:41:03.393Z,0
2017-09-16T03:42:02.376Z,0
2017-09-16T03:43:02.364Z,0
2017-09-16T03:44:02.357Z,0
2017-09-16T03:45:02.668Z,0
2017-09-16T03:46:02.679Z,0
2017-09-16T03:47:02.331Z,0
2017-09-16T03:48:03.292Z,0
2017-09-16T03:49:02.301Z,0
2017-09-16T03:50:02.937Z,0
2017-09-16T03:51:02.941Z,0
2017-09-16T03:52:02.909Z,0
2017-09-16T03:53:08.366Z,0
2017-09-16T03:54:02.885Z,0
2017-09-16T03:55:02.534Z,0
2017-09-16T03:56:02.546Z,0
2017-09-16T03:57:03.549Z,0
2017-09-16T03:58:02.847Z,0
2017-09-16T03:59:02.834Z,0
2017-09-16T04:00:02.146Z,0
2017-09-16T04:01:02.468Z,0
2017-09-16T04:02:02.122Z,0
2017-09-16T04:03:02.488Z,0
2017-09-16T04:04:02.793Z,0
2017-09-16T04:05:02.464Z,0
2017-09-16T04:06:02.753Z,0
2017-09-16T04:07:02.104Z,0
2017-09-16T04:08:02.383Z,0
2017-09-16T04:09:02.364Z,0
2017-09-16T04:10:03.022Z,0
2017-09-16T04:11:02.663Z,0
2017-09-16T04:12:02.346Z,0
2017-09-16T04:13:02.984Z,0
2017-09-16T04:14:02.627Z,0
2017-09-16T04:15:01.970Z,0
2017-09-16T04:16:01.936Z,0
2017-09-16T04:17:01.942Z,0
2017-09-16T04:18:01.908Z,0
2017-09-16T04:19:02.578Z,0
2017-09-16T04:20:02.543Z,0
2017-09-16T04:21:01.910Z,0
2017-09-16T04:22:02.192Z,0
2017-09-16T04:23:02.190Z,0
2017-09-16T04:24:02.539Z,0
2017-09-16T04:25:02.490Z,0
2017-09-16T04:26:02.148Z,0
2017-09-16T04:27:02.464Z,0
2017-09-16T04:28:01.802Z,0
2017-09-16T04:29:02.102Z,0
2017-09-16T04:30:02.407Z,0
2017-09-16T04:31:01.743Z,0
2017-09-16T04:32:02.072Z,0
2017-09-16T04:33:01.741Z,0
2017-09-16T04:34:01.706Z,0
2017-09-16T04:35:01.700Z,0
2017-09-16T04:36:01.677Z,0
2017-09-16T04:37:02.028Z,0
2017-09-16T04:38:02.324Z,0
2017-09-16T04:39:01.977Z,0
2017-09-16T04:40:02.318Z,0
2017-09-16T04:41:01.961Z,0
2017-09-16T04:42:01.600Z,0
2017-09-16T04:43:02.260Z,0
2017-09-16T04:44:01.926Z,0
2017-09-16T04:45:01.564Z,5
2017-09-16T04:46:01.570Z,5
2017-09-16T04:47:01.871Z,5
2017-09-16T04:48:01.520Z,5
2017-09-16T04:49:02.170Z,5
2017-09-16T04:50:02.171Z,5
2017-09-16T04:51:01.813Z,5
2017-09-16T04:52:01.840Z,5
2017-09-16T04:53:01.785Z,10
2017-09-16T04:54:01.444Z,10
2017-09-16T04:55:01.755Z,10
2017-09-16T04:56:02.407Z,10
2017-09-16T04:57:02.079Z,10
2017-09-16T04:58:01.916Z,10
2017-09-16T04:59:01.733Z,10
2017-09-16T05:00:01.707Z,15
2017-09-16T05:01:02.024Z,15
2017-09-16T05:02:02.004Z,15
2017-09-16T05:03:01.319Z,15
2017-09-16T05:04:01.659Z,15
2017-09-16T05:05:01.326Z,20
2017-09-16T05:06:01.947Z,20
2017-09-16T05:07:01.646Z,20
2017-09-16T05:08:01.902Z,20
2017-09-16T05:09:01.921Z,20
2017-09-16T05:10:01.911Z,20
2017-09-16T05:11:01.589Z,20
2017-09-16T05:12:01.527Z,20
2017-09-16T05:13:01.851Z,25
2017-09-16T05:14:01.857Z,25
2017-09-16T05:15:01.488Z,30
2017-09-16T05:16:01.502Z,35
2017-09-16T05:17:01.499Z,35
2017-09-16T05:18:01.195Z,40
2017-09-16T05:19:02.026Z,40
2017-09-16T05:20:01.093Z,40
2017-09-16T05:21:01.425Z,35
2017-09-16T05:22:01.724Z,35
2017-09-16T05:23:02.055Z,35
2017-09-16T05:24:01.382Z,35
2017-09-16T05:25:01.025Z,35
2017-09-16T05:26:01.365Z,35
2017-09-16T05:27:01.674Z,35
2017-09-16T05:28:01.326Z,35
2017-09-16T05:29:01.657Z,35
2017-09-16T05:30:00.962Z,35
2017-09-16T05:31:01.286Z,40
2017-09-16T05:32:00.938Z,45
2017-09-16T05:33:01.281Z,45
2017-09-16T05:34:00.942Z,45
2017-09-16T05:35:01.229Z,45
2017-09-16T05:36:01.540Z,45
2017-09-16T05:37:01.553Z,45
2017-09-16T05:38:01.218Z,45
2017-09-16T05:39:01.494Z,45
2017-09-16T05:40:01.494Z,45
2017-09-16T05:41:01.183Z,45
2017-09-16T05:42:01.137Z,40
2017-09-16T05:43:01.182Z,40
2017-09-16T05:44:00.781Z,40
2017-09-16T05:45:01.096Z,40
2017-09-16T05:46:01.107Z,45
2017-09-16T05:47:00.734Z,40
2017-09-16T05:48:01.073Z,45
2017-09-16T05:49:00.712Z,45
2017-09-16T05:50:01.053Z,45
2017-09-16T05:51:01.036Z,45
2017-09-16T05:52:00.676Z,50
2017-09-16T05:53:00.669Z,55
2017-09-16T05:54:01.368Z,60
2017-09-16T05:55:00.969Z,65
2017-09-16T05:56:00.958Z,65
2017-09-16T05:57:01.288Z,65
2017-09-16T05:58:00.936Z,65
2017-09-16T05:59:00.935Z,60
2017-09-16T06:00:01.242Z,55
2017-09-16T06:01:01.245Z,55
2017-09-16T06:02:01.207Z,60
2017-09-16T06:03:00.867Z,60
2017-09-16T06:04:01.553Z,65
2017-09-16T06:05:01.489Z,70
2017-09-16T06:06:01.179Z,70
2017-09-16T06:07:00.506Z,70
2017-09-16T06:08:01.130Z,65
2017-09-16T06:09:00.794Z,65
2017-09-16T06:10:00.809Z,70
2017-09-16T06:11:01.115Z,75
2017-09-16T06:12:00.770Z,85
2017-09-16T06:13:00.755Z,100
2017-09-16T06:14:00.735Z,110
2017-09-16T06:15:00.717Z,125
2017-09-16T06:16:00.376Z,135
2017-09-16T06:17:01.677Z,140
2017-09-16T06:18:00.348Z,150
2017-09-16T06:19:00.374Z,150
2017-09-16T06:20:00.368Z,145
2017-09-16T06:21:00.666Z,150
2017-09-16T06:22:01.288Z,165
2017-09-16T06:23:00.950Z,175
2017-09-16T06:24:01.303Z,185
2017-09-16T06:25:00.601Z,185
2017-09-16T06:26:01.238Z,175
2017-09-16T06:27:01.242Z,165
2017-09-16T06:28:00.560Z,155
2017-09-16T06:29:01.556Z,155
2017-09-16T06:30:00.548Z,150
2017-09-16T06:31:00.860Z,150
2017-09-16T06:32:00.204Z,150
2017-09-16T06:33:00.826Z,145
2017-09-16T06:34:00.162Z,145
2017-09-16T06:35:00.475Z,150
2017-09-16T06:36:00.508Z,160
2017-09-16T06:37:01.451Z,170
2017-09-16T06:38:00.797Z,190
2017-09-16T06:39:01.106Z,205
2017-09-16T06:40:00.420Z,215
2017-09-16T06:41:01.149Z,215
2017-09-16T06:42:00.401Z,210
2017-09-16T06:43:00.397Z,195
2017-09-16T06:44:00.760Z,185
2017-09-16T06:45:00.384Z,175
2017-09-16T06:46:00.714Z,170
2017-09-16T06:47:00.350Z,170
2017-09-16T06:48:00.341Z,175
2017-09-16T06:49:04.316Z,195
2017-09-16T06:50:00.319Z,215
2017-09-16T06:51:00.323Z,225
2017-09-16T06:51:59.964Z,230
2017-09-16T06:53:00.959Z,220
2017-09-16T06:53:59.955Z,230
2017-09-16T06:55:00.604Z,235
2017-09-16T06:56:00.264Z,235
2017-09-16T06:57:00.248Z,230
2017-09-16T06:58:00.240Z,225
2017-09-16T06:59:00.546Z,205
2017-09-16T06:59:59.882Z,195
2017-09-16T07:00:59.877Z,180
2017-09-16T07:02:00.532Z,165
2017-09-16T07:02:59.846Z,155
2017-09-16T07:04:00.166Z,150
2017-09-16T07:05:00.826Z,145
2017-09-16T07:05:59.819Z,155
2017-09-16T07:07:00.517Z,165
2017-09-16T07:08:00.801Z,180
2017-09-16T07:08:59.824Z,195
2017-09-16T07:09:59.778Z,205
2017-09-16T07:10:59.787Z,210
2017-09-16T07:12:00.088Z,205
2017-09-16T07:12:59.762Z,205
2017-09-16T07:13:59.792Z,190
2017-09-16T07:15:00.770Z,175
2017-09-16T07:16:00.051Z,160
2017-09-16T07:17:00.057Z,155
2017-09-16T07:18:00.705Z,155
2017-09-16T07:18:59.699Z,165
2017-09-16T07:20:00.341Z,185
2017-09-16T07:21:00.012Z,210
2017-09-16T07:22:00.038Z,230
2017-09-16T07:23:00.314Z,255
2017-09-16T07:23:59.966Z,265
2017-09-16T07:25:00.296Z,285
2017-09-16T07:26:00.317Z,310
2017-09-16T07:26:59.939Z,345
2017-09-16T07:28:00.623Z,375
2017-09-16T07:28:59.944Z,390
2017-09-16T07:29:59.596Z,400
2017-09-16T07:30:59.572Z,420
2017-09-16T07:31:59.586Z,435
2017-09-16T07:32:59.589Z,435
2017-09-16T07:33:59.880Z,420
2017-09-16T07:34:59.569Z,405
2017-09-16T07:35:59.556Z,405
2017-09-16T07:36:59.537Z,395
2017-09-16T07:37:59.842Z,380
2017-09-16T07:39:00.158Z,365
2017-09-16T07:40:00.173Z,360
2017-09-16T07:40:59.497Z,355
2017-09-16T07:42:00.165Z,350
2017-09-16T07:43:00.686Z,345
2017-09-16T07:44:00.131Z,330
2017-09-16T07:44:59.788Z,320
2017-09-16T07:45:59.462Z,325
2017-09-16T07:46:59.450Z,330
2017-09-16T07:47:59.800Z,335
2017-09-16T07:48:59.765Z,315
2017-09-16T07:50:00.084Z,270
2017-09-16T07:51:00.106Z,240
2017-09-16T07:52:00.102Z,205
2017-09-16T07:53:00.439Z,185
2017-09-16T07:53:59.405Z,175
2017-09-16T07:55:00.103Z,180
2017-09-16T07:55:59.732Z,190
2017-09-16T07:56:59.385Z,200
2017-09-16T07:57:59.716Z,205
2017-09-16T07:58:59.698Z,200
2017-09-16T07:59:59.707Z,195
2017-09-16T08:01:00.011Z,195
2017-09-16T08:01:59.674Z,195
2017-09-16T08:02:59.678Z,195
2017-09-16T08:03:59.993Z,190
2017-09-16T08:04:59.322Z,185
2017-09-16T08:05:59.329Z,185
2017-09-16T08:06:59.310Z,180
2017-09-16T08:07:59.328Z,180
2017-09-16T08:08:59.973Z,165
2017-09-16T08:09:59.285Z,165
2017-09-16T08:10:59.622Z,155
2017-09-16T08:11:59.600Z,145
2017-09-16T08:12:59.922Z,135
2017-09-16T08:13:59.580Z,135
2017-09-16T08:14:59.272Z,145
2017-09-16T08:15:59.583Z,145
2017-09-16T08:16:59.238Z,135
2017-09-16T08:17:59.902Z,130
2017-09-16T08:18:59.866Z,135
2017-09-16T08:19:59.549Z,135
2017-09-16T08:20:59.546Z,130
2017-09-16T08:21:59.874Z,130
2017-09-16T08:22:59.219Z,130
2017-09-16T08:23:59.504Z,130
2017-09-16T08:25:00.170Z,125
2017-09-16T08:25:59.837Z,115
2017-09-16T08:26:59.858Z,105
2017-09-16T08:27:59.176Z,100
2017-09-16T08:28:59.807Z,100
2017-09-16T08:29:59.139Z,105
2017-09-16T08:30:59.453Z,105
2017-09-16T08:32:00.109Z,100
2017-09-16T08:32:59.132Z,95
2017-09-16T08:33:59.438Z,100
2017-09-16T08:34:59.429Z,100
2017-09-16T08:35:59.083Z,105
2017-09-16T08:36:59.079Z,105
2017-09-16T08:37:59.080Z,100
2017-09-16T08:38:59.413Z,100
2017-09-16T08:39:59.051Z,95
2017-09-16T08:40:59.390Z,90
2017-09-16T08:41:59.372Z,95
2017-09-16T08:42:59.688Z,100
2017-09-16T08:43:59.356Z,105
2017-09-16T08:44:59.689Z,105
2017-09-16T08:45:59.685Z,105
2017-09-16T08:46:59.655Z,100
2017-09-16T08:47:59.664Z,95
2017-09-16T08:48:58.980Z,95
2017-09-16T08:49:59.639Z,95
2017-09-16T08:50:59.301Z,95
2017-09-16T08:51:59.007Z,95
2017-09-16T08:52:58.944Z,95
2017-09-16T08:53:59.282Z,95
2017-09-16T08:54:58.928Z,100
2017-09-16T08:55:59.588Z,100
2017-09-16T08:56:59.575Z,100
2017-09-16T08:57:59.919Z,100
2017-09-16T08:58:59.903Z,95
2017-09-16T09:00:00.216Z,95
2017-09-16T09:00:59.537Z,95
2017-09-16T09:01:59.195Z,105
2017-09-16T09:02:59.883Z,110
2017-09-16T09:03:58.861Z,115
2017-09-16T09:05:00.167Z,115
2017-09-16T09:05:59.178Z,120
2017-09-16T09:06:59.504Z,130
2017-09-16T09:07:58.869Z,140
2017-09-16T09:08:59.489Z,170
2017-09-16T09:09:59.140Z,200
2017-09-16T09:10:59.466Z,220
2017-09-16T09:11:59.140Z,240
2017-09-16T09:12:59.112Z,260
2017-09-16T09:13:58.788Z,280
2017-09-16T09:14:58.761Z,295
2017-09-16T09:15:58.767Z,310
2017-09-16T09:16:59.091Z,320
2017-09-16T09:17:59.071Z,310
2017-09-16T09:18:59.087Z,305
2017-09-16T09:19:59.049Z,295
2017-09-16T09:20:59.040Z,295
2017-09-16T09:21:58.700Z,295
2017-09-16T09:22:59.047Z,280
2017-09-16T09:23:59.014Z,250
2017-09-16T09:24:59.350Z,230
2017-09-16T09:25:59.362Z,215
2017-09-16T09:26:59.340Z,205
2017-09-16T09:27:59.000Z,200
2017-09-16T09:28:58.641Z,200
2017-09-16T09:29:58.977Z,190
2017-09-16T09:30:59.634Z,180
2017-09-16T09:31:59.286Z,170
2017-09-16T09:32:58.636Z,160
2017-09-16T09:33:58.955Z,160
2017-09-16T09:34:58.942Z,170
2017-09-16T09:35:58.587Z,180
2017-09-16T09:36:59.258Z,200
2017-09-16T09:37:59.562Z,210
2017-09-16T09:38:59.555Z,210
2017-09-16T09:39:59.229Z,215
2017-09-16T09:40:59.226Z,220
2017-09-16T09:41:58.891Z,215
2017-09-16T09:42:58.861Z,220
2017-09-16T09:43:58.855Z,240
2017-09-16T09:44:58.537Z,260
2017-09-16T09:45:58.856Z,260
2017-09-16T09:46:58.521Z,260
2017-09-16T09:47:58.512Z,260
2017-09-16T09:48:58.490Z,265
2017-09-16T09:49:58.806Z,275
2017-09-16T09:50:58.809Z,290
2017-09-16T09:51:58.788Z,300
2017-09-16T09:52:58.789Z,295
2017-09-16T09:53:58.789Z,285
2017-09-16T09:54:58.851Z,280
2017-09-16T09:55:59.453Z,275
2017-09-16T09:56:58.436Z,265
2017-09-16T09:57:59.071Z,255
2017-09-16T09:58:59.080Z,240
2017-09-16T09:59:58.408Z,210
2017-09-16T10:00:59.049Z,180
2017-09-16T10:01:58.390Z,185
2017-09-16T10:02:58.402Z,205
2017-09-16T10:03:58.697Z,205
2017-09-16T10:04:58.686Z,195
2017-09-16T10:05:59.042Z,185
2017-09-16T10:06:58.685Z,175
2017-09-16T10:07:59.320Z,170
2017-09-16T10:08:58.347Z,170
2017-09-16T10:09:58.320Z,175
2017-09-16T10:10:58.314Z,175
2017-09-16T10:11:58.987Z,170
2017-09-16T10:12:58.634Z,160
2017-09-16T10:13:58.286Z,155
2017-09-16T10:14:58.991Z,145
2017-09-16T10:15:58.601Z,145
2017-09-16T10:16:58.948Z,150
2017-09-16T10:17:58.926Z,165
2017-09-16T10:18:58.932Z,185
2017-09-16T10:19:58.617Z,200
2017-09-16T10:20:59.232Z,195
2017-09-16T10:21:58.879Z,185
2017-09-16T10:22:59.230Z,170
2017-09-16T10:23:58.873Z,165
2017-09-16T10:24:58.222Z,175
2017-09-16T10:25:58.523Z,185
2017-09-16T10:26:58.845Z,195
2017-09-16T10:27:58.841Z,205
2017-09-16T10:28:58.827Z,205
2017-09-16T10:29:58.508Z,205
2017-09-16T10:30:58.840Z,210
2017-09-16T10:31:58.477Z,220
2017-09-16T10:32:58.492Z,225
2017-09-16T10:33:58.792Z,225
2017-09-16T10:34:58.792Z,220
2017-09-16T10:35:58.137Z,210
2017-09-16T10:36:58.769Z,200
2017-09-16T10:37:58.104Z,190
2017-09-16T10:38:58.426Z,180
2017-09-16T10:39:58.754Z,175
2017-09-16T10:40:58.096Z,170
2017-09-16T10:42:06.815Z,160
2017-09-16T10:42:59.087Z,155
2017-09-16T10:43:58.413Z,155
2017-09-16T10:44:58.404Z,150
2017-09-16T10:45:58.381Z,150
2017-09-16T10:46:58.379Z,150
2017-09-16T10:47:58.369Z,155
2017-09-16T10:48:58.389Z,160
2017-09-16T10:49:58.010Z,165
2017-09-16T10:50:58.351Z,160
2017-09-16T10:51:58.654Z,160
2017-09-16T10:52:58.314Z,155
2017-09-16T10:53:58.356Z,160
2017-09-16T10:54:58.649Z,160
2017-09-16T10:55:58.302Z,160
2017-09-16T10:56:58.287Z,160
2017-09-16T10:57:58.276Z,160
2017-09-16T10:58:58.593Z,160
2017-09-16T10:59:58.263Z,155
2017-09-16T11:00:58.931Z,155
2017-09-16T11:01:57.931Z,155
2017-09-16T11:02:58.891Z,155
2017-09-16T11:03:58.249Z,165
2017-09-16T11:04:58.898Z,170
2017-09-16T11:05:58.870Z,175
2017-09-16T11:06:58.870Z,175
2017-09-16T11:07:58.524Z,175
2017-09-16T11:08:58.190Z,175
2017-09-16T11:09:57.853Z,180
2017-09-16T11:10:57.896Z,185
2017-09-16T11:11:58.170Z,180
2017-09-16T11:12:57.852Z,175
2017-09-16T11:13:58.149Z,170
2017-09-16T11:14:58.157Z,165
2017-09-16T11:15:58.822Z,170
2017-09-16T11:16:58.815Z,165
2017-09-16T11:17:58.117Z,165
2017-09-16T11:18:57.779Z,165
2017-09-16T11:19:58.099Z,155
2017-09-16T11:20:57.765Z,165
2017-09-16T11:21:57.756Z,180
2017-09-16T11:22:58.077Z,205
2017-09-16T11:23:58.089Z,210
2017-09-16T11:24:58.418Z,205
2017-09-16T11:25:58.060Z,195
2017-09-16T11:26:58.050Z,185
2017-09-16T11:27:58.053Z,195
2017-09-16T11:28:57.715Z,190
2017-09-16T11:29:58.352Z,190
2017-09-16T11:30:58.362Z,185
2017-09-16T11:31:57.680Z,190
2017-09-16T11:32:57.680Z,200
2017-09-16T11:33:57.989Z,210
2017-09-16T11:34:57.980Z,210
2017-09-16T11:35:58.644Z,210
2017-09-16T11:36:58.002Z,215
2017-09-16T11:37:58.317Z,205
2017-09-16T11:38:57.974Z,200
2017-09-16T11:39:57.641Z,200
2017-09-16T11:40:57.941Z,215
2017-09-16T11:41:57.625Z,230
2017-09-16T11:42:57.597Z,240
2017-09-16T11:44:06.029Z,250
2017-09-16T11:44:57.619Z,240
2017-09-16T11:45:57.594Z,235
2017-09-16T11:46:58.231Z,230
2017-09-16T11:47:58.546Z,235
2017-09-16T11:48:58.537Z,235
2017-09-16T11:49:58.196Z,225
2017-09-16T11:50:58.214Z,215
2017-09-16T11:51:57.863Z,210
2017-09-16T11:52:57.536Z,205
2017-09-16T11:53:58.173Z,205
2017-09-16T11:54:57.511Z,205
2017-09-16T11:55:57.866Z,205
2017-09-16T11:56:58.171Z,205
2017-09-16T11:57:58.815Z,215
2017-09-16T11:58:57.836Z,225
2017-09-16T11:59:57.493Z,235
2017-09-16T12:00:58.130Z,250
2017-09-16T12:01:57.858Z,265
2017-09-16T12:02:57.815Z,265
2017-09-16T12:03:58.120Z,270
2017-09-16T12:04:58.106Z,265
2017-09-16T12:05:58.104Z,250
2017-09-16T12:06:57.750Z,235
2017-09-16T12:07:58.072Z,235
2017-09-16T12:08:58.717Z,260
2017-09-16T12:09:57.719Z,275
2017-09-16T12:10:57.723Z,300
2017-09-16T12:11:57.733Z,315
2017-09-16T12:12:58.044Z,325
2017-09-16T12:13:58.401Z,330
2017-09-16T12:14:57.362Z,340
2017-09-16T12:15:58.041Z,365
2017-09-16T12:16:57.675Z,380
2017-09-16T12:17:57.680Z,355
2017-09-16T12:18:57.667Z,330
2017-09-16T12:19:58.004Z,330
2017-09-16T12:20:57.658Z,325
2017-09-16T12:21:58.290Z,330
2017-09-16T12:22:57.307Z,350
2017-09-16T12:23:57.966Z,375
2017-09-16T12:24:57.298Z,390
2017-09-16T12:25:57.302Z,395
2017-09-16T12:26:57.935Z,395
2017-09-16T12:27:57.927Z,395
2017-09-16T12:28:57.612Z,405
2017-09-16T12:29:57.258Z,415
2017-09-16T12:30:57.909Z,400
2017-09-16T12:31:57.590Z,375
2017-09-16T12:32:57.253Z,365
2017-09-16T12:33:58.241Z,375
2017-09-16T12:34:57.907Z,395
2017-09-16T12:35:57.218Z,435
2017-09-16T12:36:57.907Z,455
2017-09-16T12:37:57.210Z,445
2017-09-16T12:38:57.556Z,420
2017-09-16T12:39:57.880Z,405
2017-09-16T12:40:57.223Z,385
2017-09-16T12:41:57.510Z,350
2017-09-16T12:42:57.503Z,330
2017-09-16T12:43:57.876Z,300
2017-09-16T12:44:57.507Z,280
2017-09-16T12:45:57.821Z,275
2017-09-16T12:46:57.828Z,295
2017-09-16T12:47:57.145Z,325
2017-09-16T12:48:57.495Z,340
2017-09-16T12:49:57.792Z,355
2017-09-16T12:50:57.799Z,380
2017-09-16T12:51:57.793Z,395
2017-09-16T12:52:57.801Z,375
2017-09-16T12:53:57.442Z,365
2017-09-16T12:54:58.123Z,350
2017-09-16T12:55:57.445Z,320
2017-09-16T12:56:57.094Z,280
2017-09-16T12:57:58.403Z,265
2017-09-16T12:58:57.408Z,265
2017-09-16T12:59:57.481Z,260
2017-09-16T13:00:57.394Z,260
2017-09-16T13:01:57.058Z,265
2017-09-16T13:02:57.394Z,280
2017-09-16T13:03:57.394Z,325
2017-09-16T13:04:57.059Z,395
2017-09-16T13:05:57.719Z,435
2017-09-16T13:06:57.698Z,420
2017-09-16T13:07:57.358Z,390
2017-09-16T13:08:57.703Z,335
2017-09-16T13:09:57.013Z,295
2017-09-16T13:10:57.372Z,245
2017-09-16T13:11:57.671Z,210
2017-09-16T13:12:57.657Z,205
2017-09-16T13:13:57.320Z,225
2017-09-16T13:14:57.673Z,250
2017-09-16T13:15:57.306Z,260
2017-09-16T13:16:57.030Z,250
2017-09-16T13:17:57.013Z,245
2017-09-16T13:18:57.970Z,240
2017-09-16T13:19:56.950Z,240
2017-09-16T13:20:57.602Z,240
2017-09-16T13:21:58.260Z,240
2017-09-16T13:22:57.270Z,230
2017-09-16T13:23:57.266Z,220
2017-09-16T13:24:57.602Z,215
2017-09-16T13:25:57.619Z,205
2017-09-16T13:26:56.926Z,195
2017-09-16T13:27:56.906Z,190
2017-09-16T13:28:57.227Z,205
2017-09-16T13:29:57.222Z,225
2017-09-16T13:30:57.302Z,245
2017-09-16T13:31:57.864Z,255
2017-09-16T13:32:56.883Z,255
2017-09-16T13:33:57.202Z,240
2017-09-16T13:34:57.525Z,230
2017-09-16T13:35:56.855Z,230
2017-09-16T13:36:57.174Z,235
2017-09-16T13:37:57.505Z,240
2017-09-16T13:38:56.858Z,250
2017-09-16T13:39:58.162Z,270
2017-09-16T13:40:57.164Z,300
2017-09-16T13:41:57.527Z,310
2017-09-16T13:42:57.135Z,310
2017-09-16T13:43:57.474Z,315
2017-09-16T13:44:57.131Z,320
2017-09-16T13:45:57.123Z,330
2017-09-16T13:46:56.799Z,335
2017-09-16T13:47:57.785Z,340
2017-09-16T13:48:57.119Z,335
2017-09-16T13:49:57.099Z,315
2017-09-16T13:50:57.139Z,280
2017-09-16T13:51:56.758Z,255
2017-09-16T13:52:57.733Z,235
2017-09-16T13:53:57.413Z,220
2017-09-16T13:54:57.124Z,210
2017-09-16T13:55:57.428Z,215
2017-09-16T13:56:57.067Z,230
2017-09-16T13:57:57.072Z,255
2017-09-16T13:58:57.050Z,275
2017-09-16T13:59:57.033Z,285
2017-09-16T14:00:57.352Z,280
2017-09-16T14:01:57.374Z,260
2017-09-16T14:02:57.019Z,240
2017-09-16T14:03:56.677Z,235
2017-09-16T14:04:57.014Z,230
2017-09-16T14:05:57.318Z,235
2017-09-16T14:06:57.367Z,250
2017-09-16T14:07:57.317Z,285
2017-09-16T14:08:56.999Z,320